Terminal Aerodrome Forecast
Issued by NWS Portland, ME

Home | Current Version | Previous Version | Text Only | Print | Product List | Glossary On
Versions: 1 2 3 4 5 6 7 8 9 10 11 12 13 14 15 16 17 18 19 20 21 22
000
FTUS41 KGYX 060536
TAFPWM
TAF
KPWM 060536Z 0606/0706 36010KT P6SM -RA OVC090
     FM060900 36006KT 5SM -DZ BR OVC030
     FM061500 10008KT P6SM OVC050
     FM070000 14006KT P6SM OVC015=

USA.gov is the U.S. government's official web portal to all federal, state and local government web resources and services.